createdAt,value
2022-09-07T08:26:19.429Z,7.85
2022-09-07T08:28:51.969Z,8.02
2022-09-07T08:31:21.482Z,7.18
2022-09-07T08:33:51.395Z,7.03
2022-09-07T08:39:03.501Z,7.28
2022-09-07T08:41:55.151Z,7.55
2022-09-07T08:44:41.889Z,6.68
2022-09-07T08:47:20.396Z,5.60
2022-09-07T08:50:03.031Z,6.93
2022-09-07T08:52:50.899Z,6.32
2022-09-07T08:55:33.607Z,8.52
2022-09-07T08:58:47.661Z,6.25
2022-09-07T09:01:31.364Z,5.32
2022-09-07T09:04:15.965Z,5.10
2022-09-07T09:07:14.273Z,5.40
2022-09-07T09:10:20.286Z,6.05
2022-09-07T09:13:08.445Z,6.05
2022-09-07T09:16:05.913Z,7.55
2022-09-07T09:18:53.996Z,4.65
2022-09-07T09:21:21.777Z,5.85
2022-09-07T09:23:52.772Z,5.55
2022-09-07T09:26:40.694Z,6.97
2022-09-07T09:29:15.936Z,7.88
2022-09-07T09:31:43.000Z,5.60
2022-09-07T09:34:15.987Z,7.40
2022-09-07T09:36:47.340Z,8.00
2022-09-07T09:39:33.965Z,6.07
2022-09-07T09:42:23.278Z,6.10
2022-09-07T09:44:51.530Z,7.40
2022-09-07T09:47:34.790Z,5.70
2022-09-07T09:53:06.355Z,5.55
2022-09-07T09:55:37.034Z,5.43
2022-09-07T10:01:31.281Z,8.60
2022-09-07T10:04:13.341Z,6.90
2022-09-07T10:06:50.024Z,5.35
2022-09-07T10:09:20.930Z,5.05
2022-09-07T10:12:09.156Z,6.50
2022-09-07T10:14:45.475Z,8.93
2022-09-07T10:17:13.133Z,6.75
2022-09-07T10:19:42.214Z,6.97
2022-09-07T10:22:38.944Z,5.45
2022-09-07T10:25:44.197Z,6.13
2022-09-07T10:28:11.166Z,7.05
2022-09-07T10:31:22.919Z,6.00
2022-09-07T10:37:01.766Z,6.17
2022-09-07T10:39:34.365Z,10.57
2022-09-07T10:42:22.338Z,7.05
2022-09-07T10:45:26.388Z,7.45
2022-09-07T10:48:08.079Z,7.60
2022-09-07T10:51:09.841Z,6.65
2022-09-07T10:56:56.547Z,11.25
2022-09-07T11:00:07.435Z,8.88
2022-09-07T11:02:21.259Z,9.02
2022-09-07T11:05:07.929Z,7.07
2022-09-07T11:07:50.297Z,8.07
2022-09-07T11:10:28.244Z,8.52
2022-09-07T11:13:00.425Z,7.53
2022-09-07T11:15:31.052Z,10.43
2022-09-07T11:18:13.965Z,12.38
2022-09-07T11:20:51.188Z,9.93
2022-09-07T11:23:25.266Z,8.48
2022-09-07T11:26:09.152Z,7.05
2022-09-07T11:29:29.192Z,9.55
2022-09-07T11:31:45.053Z,8.32
2022-09-07T11:34:24.415Z,7.88
2022-09-07T11:37:10.627Z,8.35
2022-09-07T11:39:58.526Z,7.75
2022-09-07T11:42:43.551Z,11.00
2022-09-07T11:45:50.150Z,8.05
2022-09-07T11:48:30.495Z,7.70
2022-09-07T11:51:04.840Z,8.23
2022-09-07T11:53:41.762Z,8.98
2022-09-07T11:56:25.562Z,11.10
2022-09-07T11:59:26.729Z,7.55
2022-09-07T12:02:02.914Z,8.60
2022-09-07T12:04:33.136Z,8.13
2022-09-07T12:07:06.700Z,7.95
2022-09-07T12:09:52.830Z,8.75
2022-09-07T12:12:29.797Z,8.05
2022-09-07T12:15:30.378Z,10.65
2022-09-07T12:18:32.190Z,7.82
2022-09-07T12:21:01.978Z,9.07
2022-09-07T12:23:34.459Z,8.60
2022-09-07T12:26:32.767Z,9.85
2022-09-07T12:29:00.038Z,8.52
2022-09-07T12:32:52.770Z,11.32
2022-09-07T12:34:31.989Z,11.40
2022-09-07T12:37:20.678Z,10.23
2022-09-07T12:39:50.223Z,8.35
2022-09-07T12:42:36.676Z,9.70
2022-09-07T12:45:39.175Z,10.55
2022-09-07T12:48:15.900Z,9.30
2022-09-07T12:50:58.163Z,10.75
2022-09-07T12:53:46.913Z,8.57
2022-09-07T12:56:38.774Z,8.82
2022-09-07T12:59:31.136Z,8.88
2022-09-07T13:02:15.907Z,9.95
2022-09-07T13:04:52.880Z,10.15
2022-09-07T13:07:26.254Z,10.88
2022-09-07T13:09:59.701Z,9.70
2022-09-07T13:15:48.912Z,12.63
2022-09-07T13:18:28.086Z,10.40
2022-09-07T13:21:07.882Z,9.05
2022-09-07T13:23:40.150Z,10.85
2022-09-07T13:29:14.495Z,8.00
2022-09-07T13:32:03.628Z,11.02
2022-09-07T13:34:33.755Z,8.63
2022-09-07T13:37:06.026Z,8.95
2022-09-07T13:39:41.616Z,10.30
2022-09-07T13:42:19.074Z,9.10
2022-09-07T13:45:38.295Z,12.30
2022-09-07T13:48:11.775Z,8.32
2022-09-07T13:50:47.541Z,8.40
2022-09-07T13:53:48.419Z,11.45
2022-09-07T13:56:52.225Z,10.93
2022-09-07T13:59:26.875Z,9.88
2022-09-07T14:01:54.895Z,8.85
2022-09-07T14:04:35.165Z,8.95
2022-09-07T14:07:16.998Z,7.63
2022-09-07T14:09:44.418Z,7.68
2022-09-07T14:12:19.237Z,8.70
2022-09-07T14:15:09.065Z,8.63
2022-09-07T14:17:36.527Z,8.13
2022-09-07T14:20:04.156Z,7.70
2022-09-07T14:22:35.271Z,8.65
2022-09-07T14:25:05.880Z,9.77
2022-09-07T14:27:44.371Z,10.70
2022-09-07T14:30:33.907Z,8.18
2022-09-07T14:33:11.056Z,11.00
2022-09-07T14:35:39.382Z,9.25
2022-09-07T14:41:14.614Z,7.45
2022-09-07T14:43:55.456Z,10.32
2022-09-07T14:46:31.791Z,9.27
2022-09-07T14:49:18.192Z,8.95
2022-09-07T14:51:48.286Z,8.45
2022-09-07T14:54:21.460Z,8.27
2022-09-07T14:57:19.026Z,9.77
2022-09-07T14:59:47.953Z,8.20
2022-09-07T15:02:18.416Z,12.15
2022-09-07T15:05:08.841Z,10.68
2022-09-07T15:07:39.308Z,17.27
2022-09-07T15:10:35.699Z,8.77
2022-09-07T15:13:05.763Z,10.30
2022-09-07T15:15:37.132Z,9.18
2022-09-07T15:18:40.209Z,8.57
2022-09-07T15:21:08.999Z,7.80
2022-09-07T15:23:36.544Z,9.15
2022-09-07T15:26:04.067Z,10.18
2022-09-07T15:31:56.873Z,9.38
2022-09-07T15:34:20.417Z,9.57
2022-09-07T15:36:54.499Z,13.30
2022-09-07T15:39:26.644Z,10.05
2022-09-07T15:41:54.532Z,10.82
2022-09-07T15:44:26.152Z,15.18
2022-09-07T15:49:47.373Z,13.85
2022-09-07T15:52:17.930Z,11.15
2022-09-07T15:54:45.512Z,11.07
2022-09-07T16:00:00.249Z,11.98
2022-09-07T16:05:15.005Z,13.27
2022-09-07T16:10:32.321Z,13.77
2022-09-07T16:13:01.913Z,11.52
2022-09-07T16:15:31.081Z,13.10
2022-09-07T16:17:58.501Z,10.90
2022-09-07T16:20:32.071Z,13.02
2022-09-07T16:23:17.711Z,12.88
2022-09-07T16:26:01.468Z,12.50
2022-09-07T16:28:31.948Z,13.02
2022-09-07T16:30:59.274Z,15.52
2022-09-07T16:33:36.046Z,15.35
2022-09-07T16:36:13.406Z,16.58
2022-09-07T16:38:45.084Z,13.20
2022-09-07T16:41:20.467Z,11.30
2022-09-07T16:43:50.599Z,13.55
2022-09-07T16:46:21.115Z,13.05
2022-09-07T16:48:48.829Z,11.20
2022-09-07T16:51:18.782Z,12.35
2022-09-07T16:53:49.791Z,11.40
2022-09-07T16:56:23.260Z,13.05
2022-09-07T16:59:12.801Z,12.07
2022-09-07T17:01:42.462Z,12.27
2022-09-07T17:04:12.279Z,18.73
2022-09-07T17:06:40.369Z,15.35
2022-09-07T17:09:08.182Z,14.57
2022-09-07T17:11:37.025Z,18.58
2022-09-07T17:14:05.136Z,14.80
2022-09-07T17:16:40.564Z,14.73
2022-09-07T17:21:57.605Z,15.95
2022-09-07T17:24:25.231Z,20.40
2022-09-07T17:26:52.220Z,16.60
2022-09-07T17:29:19.349Z,15.75
2022-09-07T17:34:36.343Z,17.02
2022-09-07T17:37:04.104Z,18.00
2022-09-07T17:39:31.250Z,16.25
2022-09-07T17:42:01.937Z,14.15
2022-09-07T17:44:34.748Z,14.18
2022-09-07T17:47:04.945Z,14.85
2022-09-07T17:49:32.858Z,17.50
2022-09-07T17:52:02.410Z,16.02
2022-09-07T17:54:29.630Z,18.15
2022-09-07T17:56:57.296Z,15.73
2022-09-07T18:02:13.770Z,17.65
2022-09-07T18:04:40.930Z,15.57
2022-09-07T18:07:08.056Z,22.70
2022-09-07T18:09:38.006Z,17.60
2022-09-07T18:12:05.311Z,23.15
2022-09-07T18:14:32.355Z,18.33
2022-09-07T18:16:59.891Z,19.25
2022-09-07T18:19:26.914Z,18.83
2022-09-07T18:21:53.955Z,17.35
2022-09-07T18:24:25.490Z,17.85
2022-09-07T18:26:54.968Z,17.83
2022-09-07T18:29:29.408Z,14.80
2022-09-07T18:31:58.763Z,17.20
2022-09-07T18:34:26.603Z,15.40
2022-09-07T18:36:53.819Z,15.82
2022-09-07T18:39:22.280Z,16.35
2022-09-07T18:41:49.569Z,18.42
2022-09-07T18:47:07.066Z,14.02
2022-09-07T18:49:34.744Z,16.83
2022-09-07T18:54:50.524Z,26.75
2022-09-07T18:57:17.552Z,18.98
2022-09-07T18:59:44.751Z,17.60
2022-09-07T19:02:12.508Z,18.95
2022-09-07T19:07:30.151Z,14.93
2022-09-07T19:09:57.557Z,18.83
2022-09-07T19:12:24.713Z,17.05
2022-09-07T19:14:54.665Z,16.60
2022-09-07T19:17:24.126Z,17.95
2022-09-07T19:19:51.128Z,15.73
2022-09-07T19:22:20.947Z,17.58
2022-09-07T19:24:47.962Z,17.75
2022-09-07T19:27:14.983Z,13.73
2022-09-07T19:29:45.004Z,15.23
2022-09-07T19:32:11.977Z,21.33
2022-09-07T19:34:41.921Z,18.05
2022-09-07T19:37:11.073Z,14.48
2022-09-07T19:39:38.244Z,22.85
2022-09-07T19:42:07.570Z,20.98
2022-09-07T19:44:35.171Z,15.98
2022-09-07T19:47:02.196Z,17.63
2022-09-07T19:49:30.011Z,17.08
2022-09-07T19:51:57.652Z,16.10
2022-09-07T19:54:24.837Z,17.75
2022-09-07T19:56:54.275Z,15.55
2022-09-07T19:59:24.011Z,16.42
2022-09-07T20:01:50.973Z,16.85
2022-09-07T20:04:20.855Z,14.30
2022-09-07T20:06:51.602Z,14.23
2022-09-07T20:09:21.952Z,17.02
2022-09-07T20:11:51.887Z,16.05
2022-09-07T20:14:18.893Z,18.33
2022-09-07T20:16:45.974Z,13.20
2022-09-07T20:19:14.521Z,14.65
2022-09-07T20:21:42.676Z,14.00
2022-09-07T20:24:12.100Z,13.20
2022-09-07T20:26:41.968Z,14.25
2022-09-07T20:29:27.884Z,40.15
2022-09-07T20:32:00.292Z,13.55
2022-09-07T20:34:30.511Z,13.60
2022-09-07T20:36:57.850Z,17.15
2022-09-07T20:39:25.406Z,12.52
2022-09-07T20:41:52.428Z,11.25
2022-09-07T20:44:19.726Z,11.68
2022-09-07T20:46:47.006Z,11.15
2022-09-07T20:49:16.450Z,12.00
2022-09-07T20:51:46.084Z,12.70
2022-09-07T20:54:15.560Z,12.82
2022-09-07T20:56:42.553Z,16.95
2022-09-07T20:59:09.878Z,19.05
2022-09-07T21:01:37.041Z,16.95
2022-09-07T21:04:04.119Z,18.00
2022-09-07T21:06:32.435Z,19.75
2022-09-07T21:08:59.713Z,15.45
2022-09-07T21:11:35.285Z,15.75
2022-09-07T21:14:05.865Z,17.20
2022-09-07T21:16:33.854Z,17.23
2022-09-07T21:19:05.683Z,17.08
2022-09-07T21:21:43.432Z,16.93
2022-09-07T21:24:17.456Z,14.20
2022-09-07T21:26:45.527Z,15.52
2022-09-07T21:29:26.047Z,16.25
2022-09-07T21:31:54.082Z,14.05
2022-09-07T21:34:22.231Z,17.30
2022-09-07T21:36:50.125Z,12.18
2022-09-07T21:39:19.799Z,13.52
2022-09-07T21:41:51.374Z,11.57
2022-09-07T21:44:20.930Z,13.10
2022-09-07T21:46:48.041Z,12.32
2022-09-07T21:49:17.529Z,12.57
2022-09-07T21:51:49.556Z,13.32
2022-09-07T21:54:19.017Z,13.68
2022-09-07T21:56:46.923Z,14.00
2022-09-07T21:59:16.334Z,13.38
2022-09-07T22:01:43.533Z,13.77
2022-09-07T22:04:11.014Z,15.23
2022-09-07T22:06:38.164Z,14.45
2022-09-07T22:09:08.139Z,15.07
2022-09-07T22:11:35.908Z,14.93
2022-09-07T22:14:04.156Z,14.68
2022-09-07T22:16:32.686Z,13.20
2022-09-07T22:19:00.515Z,13.75
2022-09-07T22:21:30.387Z,14.15
2022-09-07T22:24:03.322Z,12.43
2022-09-07T22:26:36.292Z,12.20
2022-09-07T22:29:10.636Z,13.70
2022-09-07T22:31:38.994Z,13.50
2022-09-07T22:34:07.558Z,14.32
2022-09-07T22:36:38.045Z,14.45
2022-09-07T22:39:08.820Z,13.27
2022-09-07T22:41:37.675Z,15.13
2022-09-07T22:44:06.292Z,14.85
2022-09-07T22:46:36.597Z,16.20
2022-09-07T22:49:05.333Z,15.80
2022-09-07T22:51:33.261Z,13.70
2022-09-07T22:54:00.754Z,13.10
2022-09-07T22:56:30.029Z,15.55
2022-09-07T22:58:59.621Z,14.07
2022-09-07T23:01:29.074Z,14.20
2022-09-07T23:03:58.686Z,16.08
2022-09-07T23:06:34.120Z,14.40
2022-09-07T23:09:05.166Z,16.38
2022-09-07T23:11:32.398Z,15.05
2022-09-07T23:14:01.782Z,14.65
2022-09-07T23:16:34.291Z,16.02
2022-09-07T23:19:01.586Z,15.17
2022-09-07T23:21:31.122Z,15.90
2022-09-07T23:23:59.691Z,15.88
2022-09-07T23:26:32.153Z,16.92
2022-09-07T23:29:04.496Z,16.13
2022-09-07T23:31:33.631Z,15.25
2022-09-07T23:34:01.989Z,14.23
2022-09-07T23:36:30.416Z,15.75
2022-09-07T23:39:00.233Z,14.90
2022-09-07T23:41:28.112Z,16.23
2022-09-07T23:43:55.265Z,15.13
2022-09-07T23:46:24.973Z,15.68
2022-09-07T23:48:54.740Z,16.40
2022-09-07T23:51:24.562Z,18.42
2022-09-07T23:53:52.856Z,16.58
2022-09-07T23:56:23.172Z,18.05
2022-09-07T23:58:50.204Z,16.27
